createdAt,value
2023-04-10T00:00:13.319Z,88.37
2023-04-10T00:05:15.300Z,88.31
2023-04-10T00:10:17.081Z,88.78
2023-04-10T00:15:18.903Z,88.81
2023-04-10T00:20:22.730Z,89.55
2023-04-10T00:25:24.433Z,89.70
2023-04-10T00:30:26.252Z,90.56
2023-04-10T00:35:28.136Z,89.75
2023-04-10T00:40:30.473Z,88.74
2023-04-10T00:45:32.402Z,89.01
2023-04-10T00:50:34.079Z,88.67
2023-04-10T00:55:35.874Z,88.31
2023-04-10T01:00:37.532Z,87.83
2023-04-10T01:05:50.215Z,88.25
2023-04-10T01:11:10.022Z,88.17
2023-04-10T01:16:18.783Z,88.61
2023-04-10T01:21:22.631Z,89.97
2023-04-10T01:27:02.981Z,89.69
2023-04-10T01:32:12.921Z,90.61
2023-04-10T01:37:26.099Z,90.44
2023-04-10T01:42:31.912Z,91.86
2023-04-10T01:47:34.506Z,91.86
2023-04-10T01:52:36.761Z,91.14
2023-04-10T01:57:49.085Z,90.89
2023-04-10T02:02:51.929Z,90.30
2023-04-10T02:08:10.976Z,90.32
2023-04-10T02:13:16.207Z,90.31
2023-04-10T02:18:19.728Z,90.81
2023-04-10T02:23:22.741Z,91.87
2023-04-10T02:28:24.423Z,92.98
2023-04-10T02:33:26.046Z,92.56
2023-04-10T02:38:27.846Z,92.64
2023-04-10T02:43:30.138Z,92.15
2023-04-10T02:48:33.193Z,92.07
2023-04-10T02:53:37.685Z,92.12
2023-04-10T02:58:40.094Z,91.48
2023-04-10T03:03:42.362Z,91.89
2023-04-10T03:08:44.740Z,91.34
2023-04-10T03:13:47.427Z,92.07
2023-04-10T03:18:49.322Z,92.38
2023-04-10T03:23:51.441Z,91.63
2023-04-10T03:28:53.219Z,92.09
2023-04-10T03:33:55.247Z,92.06
2023-04-10T03:38:57.179Z,92.18
2023-04-10T03:43:58.875Z,91.90
2023-04-10T03:49:00.768Z,92.74
2023-04-10T03:54:04.856Z,91.91
2023-04-10T03:59:06.519Z,91.72
2023-04-10T04:04:14.361Z,91.77
2023-04-10T04:09:25.377Z,90.75
2023-04-10T04:14:49.665Z,90.79
2023-04-10T04:20:14.197Z,93.44
2023-04-10T04:25:19.826Z,93.15
2023-04-10T04:30:27.058Z,92.99
2023-04-10T04:35:43.478Z,92.77
2023-04-10T04:41:05.460Z,92.83
2023-04-10T04:46:30.305Z,92.78
2023-04-10T04:51:54.690Z,93.39
2023-04-10T04:57:19.770Z,93.42
2023-04-10T05:02:39.819Z,93.81
2023-04-10T05:08:01.558Z,93.69
2023-04-10T05:13:26.521Z,93.52
2023-04-10T05:18:49.947Z,93.77
2023-04-10T05:24:10.490Z,93.37
2023-04-10T05:29:24.864Z,93.79
2023-04-10T05:34:44.448Z,93.07
2023-04-10T05:40:05.499Z,94.21
2023-04-10T05:45:24.919Z,94.25
2023-04-10T05:50:46.881Z,93.67
2023-04-10T05:56:21.169Z,93.99
2023-04-10T06:01:41.758Z,94.02
2023-04-10T06:06:43.979Z,93.59
2023-04-10T06:11:45.852Z,92.99
2023-04-10T06:16:50.276Z,92.59
2023-04-10T06:21:53.937Z,92.26
2023-04-10T06:26:57.091Z,91.74
2023-04-10T06:31:59.529Z,91.44
2023-04-10T06:37:02.744Z,90.25
2023-04-10T06:42:04.848Z,89.70
2023-04-10T06:47:29.883Z,88.93
2023-04-10T06:52:32.494Z,88.95
2023-04-10T06:57:34.274Z,88.38
2023-04-10T07:02:35.917Z,87.50
2023-04-10T07:07:37.588Z,87.46
2023-04-10T07:12:39.214Z,86.02
2023-04-10T07:17:41.046Z,86.01
2023-04-10T07:22:42.680Z,85.55
2023-04-10T07:27:44.284Z,85.52
2023-04-10T07:32:46.692Z,86.11
2023-04-10T07:37:51.972Z,84.37
2023-04-10T07:42:53.948Z,84.35
2023-04-10T07:47:55.980Z,84.93
2023-04-10T07:52:57.668Z,84.56
2023-04-10T07:57:59.289Z,84.55
2023-04-10T08:03:01.696Z,84.03
2023-04-10T08:08:03.653Z,84.04
2023-04-10T08:13:06.147Z,82.98
2023-04-10T08:18:07.768Z,82.39
2023-04-10T08:28:13.964Z,81.21
2023-04-10T08:33:15.847Z,80.47
2023-04-10T08:38:17.476Z,79.55
2023-04-10T08:43:19.194Z,78.52
2023-04-10T08:48:22.031Z,78.51
2023-04-10T08:53:26.273Z,79.41
2023-04-10T08:58:28.411Z,77.71
2023-04-10T09:03:30.880Z,77.10
2023-04-10T09:08:32.997Z,76.54
2023-04-10T09:13:39.472Z,76.34
2023-04-10T09:18:49.420Z,77.10
2023-04-10T09:24:01.046Z,76.49
2023-04-10T09:29:07.819Z,76.63
2023-04-10T09:34:15.319Z,76.24
2023-04-10T09:39:17.163Z,75.96
2023-04-10T09:44:33.242Z,73.37
2023-04-10T09:49:48.756Z,73.92
2023-04-10T09:54:50.432Z,71.63
2023-04-10T09:59:54.328Z,71.36
2023-04-10T10:04:57.790Z,71.39
2023-04-10T10:10:02.784Z,70.98
2023-04-10T10:15:10.442Z,70.37
2023-04-10T10:20:13.604Z,70.01
2023-04-10T10:25:16.482Z,69.63
2023-04-10T10:30:29.277Z,70.84
2023-04-10T10:35:32.197Z,67.59
2023-04-10T10:40:57.929Z,69.49
2023-04-10T10:46:07.317Z,68.26
2023-04-10T10:51:08.994Z,66.91
2023-04-10T10:56:34.884Z,66.26
2023-04-10T11:01:36.683Z,65.32
2023-04-10T11:06:52.146Z,64.77
2023-04-10T11:11:59.054Z,64.54
2023-04-10T11:17:01.031Z,63.87
2023-04-10T11:22:05.785Z,63.21
2023-04-10T11:27:07.773Z,62.79
2023-04-10T11:32:10.200Z,60.47
2023-04-10T11:37:23.487Z,59.45
2023-04-10T11:42:25.267Z,61.22
2023-04-10T11:47:26.902Z,60.81
2023-04-10T11:52:28.585Z,60.66
2023-04-10T11:57:35.395Z,59.43
2023-04-10T12:02:51.596Z,59.45
2023-04-10T12:07:54.275Z,59.49
2023-04-10T12:12:56.101Z,60.03
2023-04-10T12:17:58.834Z,58.36
2023-04-10T12:23:03.116Z,60.82
2023-04-10T12:28:04.807Z,59.89
2023-04-10T12:33:07.626Z,58.91
2023-04-10T12:38:09.543Z,57.77
2023-04-10T12:43:11.269Z,55.77
2023-04-10T12:48:12.864Z,55.47
2023-04-10T12:53:15.189Z,55.06
2023-04-10T12:58:18.582Z,55.37
2023-04-10T13:03:20.647Z,56.04
2023-04-10T13:08:22.984Z,54.32
2023-04-10T13:13:24.615Z,53.51
2023-04-10T13:18:26.587Z,53.09
2023-04-10T13:23:28.198Z,54.59
2023-04-10T13:28:30.019Z,53.34
2023-04-10T13:33:31.697Z,52.66
2023-04-10T13:38:33.981Z,52.48
2023-04-10T13:43:36.886Z,53.81
2023-04-10T13:48:41.359Z,53.39
2023-04-10T13:53:43.086Z,53.05
2023-04-10T13:58:46.220Z,53.04
2023-04-10T14:03:48.260Z,52.21
2023-04-10T14:08:50.084Z,51.44
2023-04-10T14:13:51.715Z,52.14
2023-04-10T14:18:54.169Z,52.15
2023-04-10T14:23:55.995Z,50.40
2023-04-10T14:28:57.634Z,51.67
2023-04-10T14:33:59.277Z,50.18
2023-04-10T14:39:00.900Z,52.25
2023-04-10T14:44:03.082Z,52.08
2023-04-10T14:49:04.790Z,51.11
2023-04-10T14:54:07.789Z,50.27
2023-04-10T14:59:09.447Z,50.08
2023-04-10T15:04:12.119Z,50.33
2023-04-10T15:09:14.432Z,51.19
2023-04-10T15:14:16.099Z,51.32
2023-04-10T15:19:17.694Z,51.97
2023-04-10T15:24:19.282Z,52.47
2023-04-10T15:29:20.898Z,52.62
2023-04-10T15:34:22.544Z,52.56
2023-04-10T15:39:24.204Z,51.90
2023-04-10T15:44:28.826Z,52.55
2023-04-10T15:49:37.799Z,52.87
2023-04-10T15:54:40.418Z,53.56
2023-04-10T15:59:42.055Z,53.71
2023-04-10T16:04:44.000Z,53.74
2023-04-10T16:09:46.230Z,53.89
2023-04-10T16:14:47.886Z,54.40
2023-04-10T16:19:49.528Z,54.27
2023-04-10T16:24:55.670Z,54.38
2023-04-10T16:29:57.452Z,54.17
2023-04-10T16:34:59.152Z,55.04
2023-04-10T16:40:02.022Z,55.72
2023-04-10T16:45:03.917Z,55.68
2023-04-10T16:50:06.814Z,56.07
2023-04-10T16:55:08.535Z,56.40
2023-04-10T17:00:11.532Z,56.72
2023-04-10T17:05:13.697Z,56.94
2023-04-10T17:10:15.449Z,57.24
2023-04-10T17:15:17.194Z,57.48
2023-04-10T17:20:18.968Z,58.28
2023-04-10T17:25:20.927Z,58.17
2023-04-10T17:30:22.848Z,58.67
2023-04-10T17:35:25.419Z,59.04
2023-04-10T17:40:27.162Z,58.99
2023-04-10T17:45:28.896Z,59.46
2023-04-10T17:50:30.816Z,59.78
2023-04-10T17:55:37.529Z,60.29
2023-04-10T18:00:43.317Z,60.90
2023-04-10T18:05:44.984Z,61.36
2023-04-10T18:10:46.652Z,61.67
2023-04-10T18:15:48.485Z,62.35
2023-04-10T18:20:50.283Z,62.61
2023-04-10T18:25:53.652Z,63.04
2023-04-10T18:30:56.746Z,63.25
2023-04-10T18:35:59.132Z,63.65
2023-04-10T18:41:01.222Z,64.28
2023-04-10T18:46:03.215Z,64.06
2023-04-10T18:51:04.957Z,64.01
2023-04-10T18:56:06.849Z,64.21
2023-04-10T19:01:10.606Z,64.68
2023-04-10T19:06:12.385Z,64.60
2023-04-10T19:11:13.969Z,64.69
2023-04-10T19:16:19.241Z,65.03
2023-04-10T19:21:21.179Z,65.04
2023-04-10T19:26:23.094Z,65.07
2023-04-10T19:31:27.587Z,65.18
2023-04-10T19:36:29.302Z,65.84
2023-04-10T19:41:31.101Z,66.47
2023-04-10T19:46:32.771Z,67.17
2023-04-10T19:51:34.528Z,68.38
2023-04-10T19:56:37.806Z,68.47
2023-04-10T20:01:39.737Z,69.45
2023-04-10T20:06:43.066Z,69.38
2023-04-10T20:11:44.749Z,69.37
2023-04-10T20:16:46.544Z,69.88
2023-04-10T20:21:48.194Z,70.43
2023-04-10T20:26:50.009Z,70.85
2023-04-10T20:31:51.682Z,71.28
2023-04-10T20:36:53.376Z,71.58
2023-04-10T20:41:54.963Z,71.71
2023-04-10T20:46:56.618Z,71.96
2023-04-10T20:51:58.242Z,72.10
2023-04-10T20:57:01.679Z,72.36
2023-04-10T21:02:03.670Z,72.87
2023-04-10T21:07:05.339Z,72.34
2023-04-10T21:12:06.973Z,72.65
2023-04-10T21:17:08.787Z,72.90
2023-04-10T21:22:10.811Z,73.38
2023-04-10T21:27:12.422Z,73.42
2023-04-10T21:32:14.162Z,73.52
2023-04-10T21:37:15.954Z,74.01
2023-04-10T21:42:19.281Z,74.19
2023-04-10T21:47:20.896Z,75.26
2023-04-10T21:52:22.602Z,75.63
2023-04-10T21:57:24.238Z,76.13
2023-04-10T22:02:26.011Z,76.71
2023-04-10T22:07:27.769Z,77.37
2023-04-10T22:12:29.363Z,76.86
2023-04-10T22:17:30.967Z,76.87
2023-04-10T22:22:32.736Z,77.29
2023-04-10T22:27:34.422Z,77.36
2023-04-10T22:32:36.221Z,77.70
2023-04-10T22:37:37.894Z,77.96
2023-04-10T22:42:39.478Z,78.63
2023-04-10T22:47:41.318Z,78.04
2023-04-10T22:52:42.964Z,78.38
2023-04-10T22:57:49.374Z,78.61
2023-04-10T23:02:51.178Z,78.75
2023-04-10T23:07:52.896Z,79.75
2023-04-10T23:12:54.528Z,80.10
2023-04-10T23:17:56.354Z,80.04
2023-04-10T23:22:58.032Z,80.35
2023-04-10T23:27:59.963Z,80.25
2023-04-10T23:33:01.910Z,79.75
2023-04-10T23:38:03.692Z,79.72
2023-04-10T23:43:05.436Z,80.44
2023-04-10T23:48:08.865Z,81.00
2023-04-10T23:53:11.165Z,81.04
2023-04-10T23:58:13.826Z,81.01
